Metar GG30 METAR message from awiacja.imgw.pl Metar G30 EPBY METAR EPBY 181330Z 30006KT 250V350 CAVOK 19/05 Q1028=